sensor_id;sensor_type;location;lat;lon;timestamp;P1;durP1;ratioP1;P2;durP2;ratioP2
19816;SDS011;68323;49.394;8.434;2024-03-02T00:01:34;30.17;;;20.93;;
19816;SDS011;68323;49.394;8.434;2024-03-02T00:04:00;33.30;;;21.80;;
19816;SDS011;68323;49.394;8.434;2024-03-02T00:06:28;35.00;;;22.27;;
19816;SDS011;68323;49.394;8.434;2024-03-02T00:08:56;35.00;;;22.87;;
19816;SDS011;68323;49.394;8.434;2024-03-02T00:11:23;39.37;;;22.10;;
19816;SDS011;68323;49.394;8.434;2024-03-02T00:13:52;33.20;;;22.60;;
19816;SDS011;68323;49.394;8.434;2024-03-02T00:16:18;36.30;;;22.73;;
19816;SDS011;68323;49.394;8.434;2024-03-02T00:18:45;36.20;;;23.50;;
19816;SDS011;68323;49.394;8.434;2024-03-02T00:21:11;35.70;;;23.50;;
19816;SDS011;68323;49.394;8.434;2024-03-02T00:23:39;38.50;;;24.03;;
19816;SDS011;68323;49.394;8.434;2024-03-02T00:26:06;39.30;;;24.00;;
19816;SDS011;68323;49.394;8.434;2024-03-02T00:28:34;38.27;;;24.43;;
19816;SDS011;68323;49.394;8.434;2024-03-02T00:33:30;40.87;;;24.07;;
19816;SDS011;68323;49.394;8.434;2024-03-02T00:35:57;41.13;;;24.47;;
19816;SDS011;68323;49.394;8.434;2024-03-02T00:38:24;41.83;;;25.90;;
19816;SDS011;68323;49.394;8.434;2024-03-02T00:40:50;46.17;;;26.97;;
19816;SDS011;68323;49.394;8.434;2024-03-02T00:45:52;39.37;;;25.50;;
19816;SDS011;68323;49.394;8.434;2024-03-02T00:48:18;42.17;;;25.33;;
19816;SDS011;68323;49.394;8.434;2024-03-02T00:50:44;41.37;;;25.70;;
19816;SDS011;68323;49.394;8.434;2024-03-02T00:53:11;37.50;;;24.17;;
19816;SDS011;68323;49.394;8.434;2024-03-02T00:55:38;40.13;;;25.20;;
19816;SDS011;68323;49.394;8.434;2024-03-02T00:58:09;40.60;;;25.37;;
19816;SDS011;68323;49.394;8.434;2024-03-02T01:00:35;43.73;;;26.47;;
19816;SDS011;68323;49.394;8.434;2024-03-02T01:03:01;44.77;;;26.67;;
19816;SDS011;68323;49.394;8.434;2024-03-02T01:05:27;41.67;;;26.40;;
19816;SDS011;68323;49.394;8.434;2024-03-02T01:07:53;47.33;;;28.20;;
19816;SDS011;68323;49.394;8.434;2024-03-02T01:10:18;49.43;;;28.97;;
19816;SDS011;68323;49.394;8.434;2024-03-02T01:12:45;48.47;;;27.53;;
19816;SDS011;68323;49.394;8.434;2024-03-02T01:15:11;52.40;;;28.40;;
19816;SDS011;68323;49.394;8.434;2024-03-02T01:17:37;49.53;;;29.17;;
19816;SDS011;68323;49.394;8.434;2024-03-02T01:20:03;49.97;;;27.70;;
19816;SDS011;68323;49.394;8.434;2024-03-02T01:22:29;45.20;;;27.37;;
19816;SDS011;68323;49.394;8.434;2024-03-02T01:24:55;42.97;;;26.40;;
19816;SDS011;68323;49.394;8.434;2024-03-02T01:27:21;48.13;;;28.70;;
19816;SDS011;68323;49.394;8.434;2024-03-02T01:29:47;46.30;;;27.70;;
19816;SDS011;68323;49.394;8.434;2024-03-02T01:32:13;50.63;;;28.47;;
19816;SDS011;68323;49.394;8.434;2024-03-02T01:34:39;52.60;;;30.73;;
19816;SDS011;68323;49.394;8.434;2024-03-02T01:37:05;46.03;;;28.60;;
19816;SDS011;68323;49.394;8.434;2024-03-02T01:39:31;51.27;;;29.33;;
19816;SDS011;68323;49.394;8.434;2024-03-02T01:41:57;48.80;;;28.60;;
19816;SDS011;68323;49.394;8.434;2024-03-02T01:44:23;48.30;;;28.37;;
19816;SDS011;68323;49.394;8.434;2024-03-02T01:46:49;48.87;;;27.77;;
19816;SDS011;68323;49.394;8.434;2024-03-02T01:49:15;49.13;;;28.50;;
19816;SDS011;68323;49.394;8.434;2024-03-02T01:51:41;46.20;;;27.77;;
19816;SDS011;68323;49.394;8.434;2024-03-02T01:54:07;47.57;;;27.30;;
19816;SDS011;68323;49.394;8.434;2024-03-02T01:56:33;46.73;;;28.53;;
19816;SDS011;68323;49.394;8.434;2024-03-02T01:58:59;46.53;;;27.03;;
19816;SDS011;68323;49.394;8.434;2024-03-02T02:01:25;46.27;;;27.50;;
19816;SDS011;68323;49.394;8.434;2024-03-02T02:03:51;45.90;;;27.23;;
19816;SDS011;68323;49.394;8.434;2024-03-02T02:06:17;45.63;;;27.77;;
19816;SDS011;68323;49.394;8.434;2024-03-02T02:08:43;47.13;;;27.63;;
19816;SDS011;68323;49.394;8.434;2024-03-02T02:11:10;46.93;;;26.37;;
19816;SDS011;68323;49.394;8.434;2024-03-02T02:13:36;42.33;;;25.67;;
19816;SDS011;68323;49.394;8.434;2024-03-02T02:16:05;45.73;;;28.03;;
19816;SDS011;68323;49.394;8.434;2024-03-02T02:18:32;53.87;;;28.67;;
19816;SDS011;68323;49.394;8.434;2024-03-02T02:20:58;53.53;;;30.00;;
19816;SDS011;68323;49.394;8.434;2024-03-02T02:23:23;53.37;;;28.83;;
19816;SDS011;68323;49.394;8.434;2024-03-02T02:25:49;46.90;;;28.50;;
19816;SDS011;68323;49.394;8.434;2024-03-02T02:28:15;49.93;;;28.13;;
19816;SDS011;68323;49.394;8.434;2024-03-02T02:30:41;46.33;;;26.87;;
19816;SDS011;68323;49.394;8.434;2024-03-02T02:33:07;47.33;;;27.43;;
19816;SDS011;68323;49.394;8.434;2024-03-02T02:35:34;49.90;;;28.47;;
19816;SDS011;68323;49.394;8.434;2024-03-02T02:38:00;49.13;;;28.93;;
19816;SDS011;68323;49.394;8.434;2024-03-02T02:40:26;67.90;;;33.87;;
19816;SDS011;68323;49.394;8.434;2024-03-02T02:42:55;64.47;;;34.57;;
19816;SDS011;68323;49.394;8.434;2024-03-02T02:45:21;64.27;;;33.43;;
19816;SDS011;68323;49.394;8.434;2024-03-02T02:47:47;56.77;;;31.73;;
19816;SDS011;68323;49.394;8.434;2024-03-02T02:50:13;53.20;;;30.23;;
19816;SDS011;68323;49.394;8.434;2024-03-02T02:52:39;49.27;;;29.67;;
19816;SDS011;68323;49.394;8.434;2024-03-02T02:55:09;53.93;;;31.50;;
19816;SDS011;68323;49.394;8.434;2024-03-02T02:57:36;58.87;;;31.83;;
19816;SDS011;68323;49.394;8.434;2024-03-02T03:00:07;55.17;;;31.07;;
19816;SDS011;68323;49.394;8.434;2024-03-02T03:02:35;54.37;;;32.10;;
19816;SDS011;68323;49.394;8.434;2024-03-02T03:05:02;54.97;;;31.20;;
19816;SDS011;68323;49.394;8.434;2024-03-02T03:07:27;56.63;;;31.73;;
19816;SDS011;68323;49.394;8.434;2024-03-02T03:09:53;53.93;;;31.90;;
19816;SDS011;68323;49.394;8.434;2024-03-02T03:12:19;56.23;;;32.33;;
19816;SDS011;68323;49.394;8.434;2024-03-02T03:14:45;53.30;;;30.67;;
19816;SDS011;68323;49.394;8.434;2024-03-02T03:17:11;50.33;;;29.73;;
19816;SDS011;68323;49.394;8.434;2024-03-02T03:19:38;57.87;;;30.57;;
19816;SDS011;68323;49.394;8.434;2024-03-02T03:22:04;50.23;;;29.73;;
19816;SDS011;68323;49.394;8.434;2024-03-02T03:24:30;48.73;;;28.37;;
19816;SDS011;68323;49.394;8.434;2024-03-02T03:26:57;50.67;;;28.67;;
19816;SDS011;68323;49.394;8.434;2024-03-02T03:29:23;48.13;;;28.93;;
19816;SDS011;68323;49.394;8.434;2024-03-02T03:31:49;46.27;;;27.90;;
19816;SDS011;68323;49.394;8.434;2024-03-02T03:34:15;50.27;;;29.10;;
19816;SDS011;68323;49.394;8.434;2024-03-02T03:36:42;45.80;;;28.20;;
19816;SDS011;68323;49.394;8.434;2024-03-02T03:39:08;48.43;;;27.73;;
19816;SDS011;68323;49.394;8.434;2024-03-02T03:41:34;47.00;;;28.03;;
19816;SDS011;68323;49.394;8.434;2024-03-02T03:44:00;42.47;;;25.37;;
19816;SDS011;68323;49.394;8.434;2024-03-02T03:46:26;43.83;;;25.87;;
19816;SDS011;68323;49.394;8.434;2024-03-02T03:48:52;38.93;;;24.67;;
19816;SDS011;68323;49.394;8.434;2024-03-02T03:51:18;43.40;;;25.77;;
19816;SDS011;68323;49.394;8.434;2024-03-02T03:53:44;43.17;;;25.33;;
19816;SDS011;68323;49.394;8.434;2024-03-02T03:56:10;43.63;;;26.63;;
19816;SDS011;68323;49.394;8.434;2024-03-02T03:58:36;40.70;;;25.63;;
19816;SDS011;68323;49.394;8.434;2024-03-02T04:01:02;41.60;;;25.50;;
19816;SDS011;68323;49.394;8.434;2024-03-02T04:03:28;50.03;;;27.60;;
19816;SDS011;68323;49.394;8.434;2024-03-02T04:05:54;46.10;;;27.13;;
19816;SDS011;68323;49.394;8.434;2024-03-02T04:08:19;49.83;;;27.10;;
19816;SDS011;68323;49.394;8.434;2024-03-02T04:10:45;52.27;;;28.73;;
19816;SDS011;68323;49.394;8.434;2024-03-02T04:13:11;51.40;;;29.03;;
19816;SDS011;68323;49.394;8.434;2024-03-02T04:15:37;50.90;;;28.97;;
19816;SDS011;68323;49.394;8.434;2024-03-02T04:18:03;59.03;;;30.80;;
19816;SDS011;68323;49.394;8.434;2024-03-02T04:20:29;54.17;;;30.23;;
19816;SDS011;68323;49.394;8.434;2024-03-02T04:22:55;46.17;;;27.83;;
19816;SDS011;68323;49.394;8.434;2024-03-02T04:25:21;46.93;;;28.03;;
19816;SDS011;68323;49.394;8.434;2024-03-02T04:27:47;49.90;;;28.80;;
19816;SDS011;68323;49.394;8.434;2024-03-02T04:30:13;47.30;;;27.60;;
19816;SDS011;68323;49.394;8.434;2024-03-02T04:32:39;48.33;;;28.63;;
19816;SDS011;68323;49.394;8.434;2024-03-02T04:35:05;43.93;;;27.33;;
19816;SDS011;68323;49.394;8.434;2024-03-02T04:37:35;47.93;;;27.50;;
19816;SDS011;68323;49.394;8.434;2024-03-02T04:40:01;75.03;;;46.70;;
19816;SDS011;68323;49.394;8.434;2024-03-02T04:42:27;62.73;;;40.57;;
19816;SDS011;68323;49.394;8.434;2024-03-02T04:44:52;73.20;;;46.93;;
19816;SDS011;68323;49.394;8.434;2024-03-02T04:47:18;75.13;;;47.60;;
19816;SDS011;68323;49.394;8.434;2024-03-02T04:49:44;60.97;;;37.20;;
19816;SDS011;68323;49.394;8.434;2024-03-02T04:52:11;56.00;;;31.93;;
19816;SDS011;68323;49.394;8.434;2024-03-02T04:54:37;53.07;;;32.40;;
19816;SDS011;68323;49.394;8.434;2024-03-02T04:57:22;48.87;;;30.23;;
19816;SDS011;68323;49.394;8.434;2024-03-02T04:59:48;44.87;;;27.77;;
19816;SDS011;68323;49.394;8.434;2024-03-02T05:02:14;47.40;;;27.90;;
19816;SDS011;68323;49.394;8.434;2024-03-02T05:04:40;49.47;;;28.00;;
19816;SDS011;68323;49.394;8.434;2024-03-02T05:07:06;46.50;;;27.67;;
19816;SDS011;68323;49.394;8.434;2024-03-02T05:09:32;48.80;;;27.87;;
19816;SDS011;68323;49.394;8.434;2024-03-02T05:11:58;47.10;;;27.07;;
19816;SDS011;68323;49.394;8.434;2024-03-02T05:14:47;47.10;;;27.37;;
19816;SDS011;68323;49.394;8.434;2024-03-02T05:17:13;45.70;;;27.23;;
19816;SDS011;68323;49.394;8.434;2024-03-02T05:19:39;45.43;;;27.60;;
19816;SDS011;68323;49.394;8.434;2024-03-02T05:22:05;47.37;;;28.53;;
19816;SDS011;68323;49.394;8.434;2024-03-02T05:24:31;48.87;;;28.77;;
19816;SDS011;68323;49.394;8.434;2024-03-02T05:26:57;49.83;;;28.97;;
19816;SDS011;68323;49.394;8.434;2024-03-02T05:29:23;46.87;;;28.07;;
19816;SDS011;68323;49.394;8.434;2024-03-02T05:31:49;49.27;;;28.23;;
19816;SDS011;68323;49.394;8.434;2024-03-02T05:34:15;47.13;;;28.33;;
19816;SDS011;68323;49.394;8.434;2024-03-02T05:36:41;48.00;;;28.07;;
19816;SDS011;68323;49.394;8.434;2024-03-02T05:39:07;44.87;;;27.20;;
19816;SDS011;68323;49.394;8.434;2024-03-02T05:41:35;44.23;;;26.50;;
19816;SDS011;68323;49.394;8.434;2024-03-02T05:44:01;48.37;;;28.17;;
19816;SDS011;68323;49.394;8.434;2024-03-02T05:46:27;47.70;;;26.47;;
19816;SDS011;68323;49.394;8.434;2024-03-02T05:48:53;43.13;;;27.13;;
19816;SDS011;68323;49.394;8.434;2024-03-02T05:51:19;45.90;;;27.43;;
19816;SDS011;68323;49.394;8.434;2024-03-02T05:53:45;47.03;;;25.93;;
19816;SDS011;68323;49.394;8.434;2024-03-02T05:56:11;44.57;;;26.67;;
19816;SDS011;68323;49.394;8.434;2024-03-02T05:58:37;44.97;;;25.70;;
19816;SDS011;68323;49.394;8.434;2024-03-02T06:01:25;42.43;;;26.20;;
19816;SDS011;68323;49.394;8.434;2024-03-02T06:03:56;45.53;;;26.00;;
19816;SDS011;68323;49.394;8.434;2024-03-02T06:06:23;42.80;;;26.37;;
19816;SDS011;68323;49.394;8.434;2024-03-02T06:08:50;45.00;;;26.87;;
19816;SDS011;68323;49.394;8.434;2024-03-02T06:11:16;45.83;;;26.97;;
19816;SDS011;68323;49.394;8.434;2024-03-02T06:13:42;43.57;;;24.80;;
19816;SDS011;68323;49.394;8.434;2024-03-02T06:16:08;43.60;;;25.90;;
19816;SDS011;68323;49.394;8.434;2024-03-02T06:18:34;42.67;;;25.50;;
19816;SDS011;68323;49.394;8.434;2024-03-02T06:21:00;45.47;;;26.77;;
19816;SDS011;68323;49.394;8.434;2024-03-02T06:23:26;43.97;;;26.33;;
19816;SDS011;68323;49.394;8.434;2024-03-02T06:25:52;40.87;;;26.20;;
19816;SDS011;68323;49.394;8.434;2024-03-02T06:28:18;42.93;;;25.30;;
19816;SDS011;68323;49.394;8.434;2024-03-02T06:30:45;40.30;;;25.30;;
19816;SDS011;68323;49.394;8.434;2024-03-02T06:33:11;43.87;;;26.57;;
19816;SDS011;68323;49.394;8.434;2024-03-02T06:35:37;42.03;;;25.63;;
19816;SDS011;68323;49.394;8.434;2024-03-02T06:38:04;42.60;;;26.27;;
19816;SDS011;68323;49.394;8.434;2024-03-02T06:40:29;37.47;;;24.23;;
19816;SDS011;68323;49.394;8.434;2024-03-02T06:42:55;39.00;;;23.83;;
19816;SDS011;68323;49.394;8.434;2024-03-02T06:45:21;39.47;;;24.47;;
19816;SDS011;68323;49.394;8.434;2024-03-02T06:47:47;37.63;;;23.63;;
19816;SDS011;68323;49.394;8.434;2024-03-02T06:50:13;35.63;;;22.53;;
19816;SDS011;68323;49.394;8.434;2024-03-02T06:52:39;35.63;;;22.07;;
19816;SDS011;68323;49.394;8.434;2024-03-02T06:55:06;34.13;;;22.40;;
19816;SDS011;68323;49.394;8.434;2024-03-02T06:57:32;32.53;;;20.50;;
19816;SDS011;68323;49.394;8.434;2024-03-02T06:59:58;34.70;;;21.23;;
19816;SDS011;68323;49.394;8.434;2024-03-02T07:02:24;34.37;;;20.73;;
19816;SDS011;68323;49.394;8.434;2024-03-02T07:04:52;35.10;;;21.63;;
19816;SDS011;68323;49.394;8.434;2024-03-02T07:07:18;34.93;;;22.20;;
19816;SDS011;68323;49.394;8.434;2024-03-02T07:09:43;36.37;;;22.03;;
19816;SDS011;68323;49.394;8.434;2024-03-02T07:12:09;34.03;;;21.77;;
19816;SDS011;68323;49.394;8.434;2024-03-02T07:14:36;33.03;;;21.10;;
19816;SDS011;68323;49.394;8.434;2024-03-02T07:17:20;31.47;;;20.07;;
19816;SDS011;68323;49.394;8.434;2024-03-02T07:19:46;30.30;;;20.03;;
19816;SDS011;68323;49.394;8.434;2024-03-02T07:22:12;34.37;;;21.30;;
19816;SDS011;68323;49.394;8.434;2024-03-02T07:24:41;26.20;;;18.17;;
19816;SDS011;68323;49.394;8.434;2024-03-02T07:27:08;26.73;;;16.17;;
19816;SDS011;68323;49.394;8.434;2024-03-02T07:29:34;21.40;;;15.07;;
19816;SDS011;68323;49.394;8.434;2024-03-02T07:32:00;18.93;;;13.17;;
19816;SDS011;68323;49.394;8.434;2024-03-02T07:34:26;20.23;;;13.47;;
19816;SDS011;68323;49.394;8.434;2024-03-02T07:36:52;19.63;;;13.53;;
19816;SDS011;68323;49.394;8.434;2024-03-02T07:39:18;19.90;;;12.60;;
19816;SDS011;68323;49.394;8.434;2024-03-02T07:41:45;20.90;;;13.97;;
19816;SDS011;68323;49.394;8.434;2024-03-02T07:44:11;17.33;;;12.57;;
19816;SDS011;68323;49.394;8.434;2024-03-02T07:46:40;15.57;;;12.17;;
19816;SDS011;68323;49.394;8.434;2024-03-02T07:49:05;17.93;;;12.20;;
19816;SDS011;68323;49.394;8.434;2024-03-02T07:51:31;16.87;;;12.57;;
19816;SDS011;68323;49.394;8.434;2024-03-02T07:53:57;18.40;;;12.47;;
19816;SDS011;68323;49.394;8.434;2024-03-02T07:56:23;17.27;;;12.97;;
19816;SDS011;68323;49.394;8.434;2024-03-02T07:58:49;17.73;;;12.63;;
19816;SDS011;68323;49.394;8.434;2024-03-02T08:01:15;17.97;;;12.80;;
19816;SDS011;68323;49.394;8.434;2024-03-02T08:03:42;16.10;;;12.63;;
19816;SDS011;68323;49.394;8.434;2024-03-02T08:06:12;20.23;;;13.20;;
19816;SDS011;68323;49.394;8.434;2024-03-02T08:08:39;17.13;;;12.53;;
19816;SDS011;68323;49.394;8.434;2024-03-02T08:11:05;19.53;;;13.30;;
19816;SDS011;68323;49.394;8.434;2024-03-02T08:13:31;17.83;;;12.60;;
19816;SDS011;68323;49.394;8.434;2024-03-02T08:15:57;15.93;;;11.73;;
19816;SDS011;68323;49.394;8.434;2024-03-02T08:18:24;16.17;;;12.27;;
19816;SDS011;68323;49.394;8.434;2024-03-02T08:20:50;14.63;;;11.90;;
19816;SDS011;68323;49.394;8.434;2024-03-02T08:23:16;15.57;;;11.53;;
19816;SDS011;68323;49.394;8.434;2024-03-02T08:25:42;15.37;;;12.27;;
19816;SDS011;68323;49.394;8.434;2024-03-02T08:28:08;17.57;;;11.73;;
19816;SDS011;68323;49.394;8.434;2024-03-02T08:30:34;15.37;;;11.23;;
19816;SDS011;68323;49.394;8.434;2024-03-02T08:33:00;16.90;;;11.87;;
19816;SDS011;68323;49.394;8.434;2024-03-02T08:35:26;17.43;;;12.50;;
19816;SDS011;68323;49.394;8.434;2024-03-02T08:37:53;16.60;;;11.77;;
19816;SDS011;68323;49.394;8.434;2024-03-02T08:40:19;14.77;;;11.40;;
19816;SDS011;68323;49.394;8.434;2024-03-02T08:42:45;17.37;;;11.57;;
19816;SDS011;68323;49.394;8.434;2024-03-02T08:45:11;14.90;;;10.70;;
19816;SDS011;68323;49.394;8.434;2024-03-02T08:47:37;14.27;;;10.73;;
19816;SDS011;68323;49.394;8.434;2024-03-02T08:50:04;15.40;;;11.30;;
19816;SDS011;68323;49.394;8.434;2024-03-02T08:52:31;16.83;;;10.70;;
19816;SDS011;68323;49.394;8.434;2024-03-02T08:54:57;14.97;;;10.37;;
19816;SDS011;68323;49.394;8.434;2024-03-02T08:57:23;13.70;;;9.60;;
19816;SDS011;68323;49.394;8.434;2024-03-02T08:59:49;14.33;;;8.73;;
19816;SDS011;68323;49.394;8.434;2024-03-02T09:02:15;10.97;;;8.57;;
19816;SDS011;68323;49.394;8.434;2024-03-02T09:04:41;11.83;;;8.90;;
19816;SDS011;68323;49.394;8.434;2024-03-02T09:07:07;11.17;;;8.23;;
19816;SDS011;68323;49.394;8.434;2024-03-02T09:09:33;11.03;;;8.60;;
19816;SDS011;68323;49.394;8.434;2024-03-02T09:11:59;9.57;;;8.00;;
19816;SDS011;68323;49.394;8.434;2024-03-02T09:14:25;9.67;;;8.23;;
19816;SDS011;68323;49.394;8.434;2024-03-02T09:16:51;9.83;;;7.87;;
19816;SDS011;68323;49.394;8.434;2024-03-02T09:19:17;8.43;;;7.20;;
19816;SDS011;68323;49.394;8.434;2024-03-02T09:21:43;7.87;;;6.50;;
19816;SDS011;68323;49.394;8.434;2024-03-02T09:24:09;8.48;;;6.80;;
19816;SDS011;68323;49.394;8.434;2024-03-02T09:26:35;8.37;;;6.10;;
19816;SDS011;68323;49.394;8.434;2024-03-02T09:29:01;8.73;;;6.90;;
19816;SDS011;68323;49.394;8.434;2024-03-02T09:31:27;8.82;;;6.70;;
19816;SDS011;68323;49.394;8.434;2024-03-02T09:33:53;7.53;;;6.70;;
19816;SDS011;68323;49.394;8.434;2024-03-02T09:36:20;9.90;;;7.87;;
19816;SDS011;68323;49.394;8.434;2024-03-02T09:38:47;9.57;;;7.47;;
19816;SDS011;68323;49.394;8.434;2024-03-02T09:41:13;8.77;;;7.32;;
19816;SDS011;68323;49.394;8.434;2024-03-02T09:43:39;8.07;;;7.07;;
19816;SDS011;68323;49.394;8.434;2024-03-02T09:46:06;8.32;;;6.90;;
19816;SDS011;68323;49.394;8.434;2024-03-02T09:48:33;10.05;;;7.07;;
19816;SDS011;68323;49.394;8.434;2024-03-02T09:50:59;8.68;;;6.90;;
19816;SDS011;68323;49.394;8.434;2024-03-02T09:53:28;7.13;;;6.43;;
19816;SDS011;68323;49.394;8.434;2024-03-02T09:55:56;8.60;;;6.72;;
19816;SDS011;68323;49.394;8.434;2024-03-02T09:58:22;10.05;;;6.90;;
19816;SDS011;68323;49.394;8.434;2024-03-02T10:00:48;9.32;;;6.25;;
19816;SDS011;68323;49.394;8.434;2024-03-02T10:03:14;11.70;;;6.45;;
19816;SDS011;68323;49.394;8.434;2024-03-02T10:05:41;8.45;;;7.25;;
19816;SDS011;68323;49.394;8.434;2024-03-02T10:08:07;9.20;;;6.65;;
19816;SDS011;68323;49.394;8.434;2024-03-02T10:10:35;8.43;;;6.93;;
19816;SDS011;68323;49.394;8.434;2024-03-02T10:13:04;10.05;;;6.90;;
19816;SDS011;68323;49.394;8.434;2024-03-02T10:15:30;17.10;;;8.00;;
19816;SDS011;68323;49.394;8.434;2024-03-02T10:17:56;9.15;;;6.97;;
19816;SDS011;68323;49.394;8.434;2024-03-02T10:20:23;19.35;;;6.88;;
19816;SDS011;68323;49.394;8.434;2024-03-02T10:22:49;76.57;;;7.88;;
19816;SDS011;68323;49.394;8.434;2024-03-02T10:25:28;10.07;;;7.00;;
19816;SDS011;68323;49.394;8.434;2024-03-02T10:27:56;9.77;;;7.30;;
19816;SDS011;68323;49.394;8.434;2024-03-02T10:30:22;9.80;;;7.23;;
19816;SDS011;68323;49.394;8.434;2024-03-02T10:32:49;10.53;;;8.00;;
19816;SDS011;68323;49.394;8.434;2024-03-02T10:35:16;12.40;;;8.17;;
19816;SDS011;68323;49.394;8.434;2024-03-02T10:37:42;11.43;;;8.27;;
19816;SDS011;68323;49.394;8.434;2024-03-02T10:40:09;9.17;;;7.73;;
19816;SDS011;68323;49.394;8.434;2024-03-02T10:42:37;10.50;;;8.00;;
19816;SDS011;68323;49.394;8.434;2024-03-02T10:45:05;9.90;;;7.73;;
19816;SDS011;68323;49.394;8.434;2024-03-02T10:47:31;10.00;;;7.13;;
19816;SDS011;68323;49.394;8.434;2024-03-02T10:49:59;13.03;;;8.20;;
19816;SDS011;68323;49.394;8.434;2024-03-02T10:52:26;10.80;;;7.63;;
19816;SDS011;68323;49.394;8.434;2024-03-02T10:54:52;9.77;;;7.70;;
19816;SDS011;68323;49.394;8.434;2024-03-02T10:57:19;9.40;;;7.40;;
19816;SDS011;68323;49.394;8.434;2024-03-02T10:59:56;12.17;;;7.93;;
19816;SDS011;68323;49.394;8.434;2024-03-02T11:02:22;11.07;;;7.87;;
19816;SDS011;68323;49.394;8.434;2024-03-02T11:04:50;11.00;;;7.50;;
19816;SDS011;68323;49.394;8.434;2024-03-02T11:07:20;8.93;;;7.00;;
19816;SDS011;68323;49.394;8.434;2024-03-02T11:10:08;9.80;;;7.43;;
19816;SDS011;68323;49.394;8.434;2024-03-02T11:12:38;8.57;;;6.23;;
19816;SDS011;68323;49.394;8.434;2024-03-02T11:15:06;8.57;;;6.60;;
19816;SDS011;68323;49.394;8.434;2024-03-02T11:17:34;10.03;;;7.50;;
19816;SDS011;68323;49.394;8.434;2024-03-02T11:20:01;9.63;;;6.87;;
19816;SDS011;68323;49.394;8.434;2024-03-02T11:22:28;11.53;;;7.30;;
19816;SDS011;68323;49.394;8.434;2024-03-02T11:24:54;9.43;;;6.33;;
19816;SDS011;68323;49.394;8.434;2024-03-02T11:30:05;7.80;;;5.53;;
19816;SDS011;68323;49.394;8.434;2024-03-02T11:32:31;9.00;;;5.50;;
19816;SDS011;68323;49.394;8.434;2024-03-02T11:34:57;6.80;;;4.63;;
19816;SDS011;68323;49.394;8.434;2024-03-02T11:37:23;6.93;;;4.63;;
19816;SDS011;68323;49.394;8.434;2024-03-02T11:39:50;6.13;;;4.33;;
19816;SDS011;68323;49.394;8.434;2024-03-02T11:42:16;4.53;;;3.50;;
19816;SDS011;68323;49.394;8.434;2024-03-02T11:44:44;7.33;;;4.33;;
19816;SDS011;68323;49.394;8.434;2024-03-02T11:47:12;5.20;;;3.60;;
19816;SDS011;68323;49.394;8.434;2024-03-02T11:49:45;5.20;;;3.50;;
19816;SDS011;68323;49.394;8.434;2024-03-02T11:52:12;6.00;;;3.60;;
19816;SDS011;68323;49.394;8.434;2024-03-02T11:54:40;5.57;;;3.87;;
19816;SDS011;68323;49.394;8.434;2024-03-02T11:57:11;4.50;;;3.03;;
19816;SDS011;68323;49.394;8.434;2024-03-02T11:59:37;4.50;;;3.20;;
19816;SDS011;68323;49.394;8.434;2024-03-02T12:02:03;5.43;;;2.87;;
19816;SDS011;68323;49.394;8.434;2024-03-02T12:04:29;5.43;;;3.00;;
19816;SDS011;68323;49.394;8.434;2024-03-02T12:06:56;3.53;;;2.67;;
19816;SDS011;68323;49.394;8.434;2024-03-02T12:09:24;3.83;;;2.60;;
19816;SDS011;68323;49.394;8.434;2024-03-02T12:12:01;3.40;;;2.30;;
19816;SDS011;68323;49.394;8.434;2024-03-02T12:14:27;3.00;;;1.87;;
19816;SDS011;68323;49.394;8.434;2024-03-02T12:16:54;4.43;;;1.57;;
19816;SDS011;68323;49.394;8.434;2024-03-02T12:19:21;2.27;;;1.80;;
19816;SDS011;68323;49.394;8.434;2024-03-02T12:21:46;2.13;;;1.70;;
19816;SDS011;68323;49.394;8.434;2024-03-02T12:24:13;3.07;;;2.20;;
19816;SDS011;68323;49.394;8.434;2024-03-02T12:26:39;2.50;;;1.97;;
19816;SDS011;68323;49.394;8.434;2024-03-02T12:29:04;6.50;;;2.10;;
19816;SDS011;68323;49.394;8.434;2024-03-02T12:31:30;3.80;;;2.20;;
19816;SDS011;68323;49.394;8.434;2024-03-02T12:33:57;4.50;;;1.97;;
19816;SDS011;68323;49.394;8.434;2024-03-02T12:36:24;3.80;;;1.63;;
19816;SDS011;68323;49.394;8.434;2024-03-02T12:38:52;4.10;;;1.70;;
19816;SDS011;68323;49.394;8.434;2024-03-02T12:41:19;3.80;;;1.90;;
19816;SDS011;68323;49.394;8.434;2024-03-02T12:43:45;2.73;;;2.17;;
19816;SDS011;68323;49.394;8.434;2024-03-02T12:46:11;2.20;;;1.77;;
19816;SDS011;68323;49.394;8.434;2024-03-02T12:48:37;2.70;;;1.70;;
19816;SDS011;68323;49.394;8.434;2024-03-02T12:51:06;3.67;;;2.43;;
19816;SDS011;68323;49.394;8.434;2024-03-02T12:53:32;3.80;;;2.20;;
19816;SDS011;68323;49.394;8.434;2024-03-02T12:55:58;2.97;;;2.10;;
19816;SDS011;68323;49.394;8.434;2024-03-02T12:58:24;3.73;;;2.30;;
19816;SDS011;68323;49.394;8.434;2024-03-02T13:01:04;2.30;;;1.83;;
19816;SDS011;68323;49.394;8.434;2024-03-02T13:03:30;2.63;;;1.83;;
19816;SDS011;68323;49.394;8.434;2024-03-02T13:05:56;2.97;;;1.73;;
19816;SDS011;68323;49.394;8.434;2024-03-02T13:08:23;2.50;;;1.50;;
19816;SDS011;68323;49.394;8.434;2024-03-02T13:10:49;2.40;;;1.60;;
19816;SDS011;68323;49.394;8.434;2024-03-02T13:13:15;3.67;;;2.00;;
19816;SDS011;68323;49.394;8.434;2024-03-02T13:15:42;4.10;;;1.60;;
19816;SDS011;68323;49.394;8.434;2024-03-02T13:18:08;2.13;;;1.73;;
19816;SDS011;68323;49.394;8.434;2024-03-02T13:20:34;3.80;;;2.40;;
19816;SDS011;68323;49.394;8.434;2024-03-02T13:23:01;2.80;;;1.90;;
19816;SDS011;68323;49.394;8.434;2024-03-02T13:25:26;3.47;;;2.43;;
19816;SDS011;68323;49.394;8.434;2024-03-02T13:27:52;2.30;;;1.83;;
19816;SDS011;68323;49.394;8.434;2024-03-02T13:30:18;2.33;;;1.70;;
19816;SDS011;68323;49.394;8.434;2024-03-02T13:32:45;2.80;;;1.73;;
19816;SDS011;68323;49.394;8.434;2024-03-02T13:35:11;3.30;;;2.40;;
19816;SDS011;68323;49.394;8.434;2024-03-02T13:37:36;4.47;;;2.70;;
19816;SDS011;68323;49.394;8.434;2024-03-02T13:40:03;3.80;;;3.20;;
19816;SDS011;68323;49.394;8.434;2024-03-02T13:42:30;4.07;;;2.90;;
19816;SDS011;68323;49.394;8.434;2024-03-02T13:44:56;5.03;;;3.03;;
19816;SDS011;68323;49.394;8.434;2024-03-02T13:47:22;4.40;;;2.73;;
19816;SDS011;68323;49.394;8.434;2024-03-02T13:49:48;4.03;;;2.93;;
19816;SDS011;68323;49.394;8.434;2024-03-02T13:52:14;4.00;;;2.37;;
19816;SDS011;68323;49.394;8.434;2024-03-02T13:54:44;3.90;;;2.40;;
19816;SDS011;68323;49.394;8.434;2024-03-02T13:57:11;4.13;;;3.10;;
19816;SDS011;68323;49.394;8.434;2024-03-02T13:59:37;4.87;;;2.80;;
19816;SDS011;68323;49.394;8.434;2024-03-02T14:02:04;4.70;;;2.60;;
19816;SDS011;68323;49.394;8.434;2024-03-02T14:04:31;3.37;;;2.80;;
19816;SDS011;68323;49.394;8.434;2024-03-02T14:06:58;3.60;;;2.87;;
19816;SDS011;68323;49.394;8.434;2024-03-02T14:09:24;5.37;;;2.97;;
19816;SDS011;68323;49.394;8.434;2024-03-02T14:11:50;4.70;;;3.10;;
19816;SDS011;68323;49.394;8.434;2024-03-02T14:14:16;5.57;;;3.00;;
19816;SDS011;68323;49.394;8.434;2024-03-02T14:16:43;4.17;;;3.23;;
19816;SDS011;68323;49.394;8.434;2024-03-02T14:19:10;5.30;;;3.00;;
19816;SDS011;68323;49.394;8.434;2024-03-02T14:21:36;7.27;;;3.40;;
19816;SDS011;68323;49.394;8.434;2024-03-02T14:24:02;4.00;;;3.00;;
19816;SDS011;68323;49.394;8.434;2024-03-02T14:26:28;4.63;;;3.03;;
19816;SDS011;68323;49.394;8.434;2024-03-02T14:28:54;4.60;;;3.10;;
19816;SDS011;68323;49.394;8.434;2024-03-02T14:31:20;4.17;;;2.90;;
19816;SDS011;68323;49.394;8.434;2024-03-02T14:33:46;3.97;;;2.80;;
19816;SDS011;68323;49.394;8.434;2024-03-02T14:36:12;3.57;;;2.60;;